createdAt,value
2018-11-05T00:09:55.238Z,7.00
2018-11-05T00:20:00.324Z,7.30
2018-11-05T00:30:05.483Z,8.00
2018-11-05T00:40:16.349Z,12.10
2018-11-05T00:50:21.260Z,10.00
2018-11-05T01:00:26.091Z,8.50
2018-11-05T01:10:30.953Z,8.00
2018-11-05T01:20:35.840Z,7.80
2018-11-05T01:30:40.701Z,7.70
2018-11-05T01:40:45.540Z,7.70
2018-11-05T01:50:50.359Z,7.50
2018-11-05T02:00:55.275Z,7.60
2018-11-05T02:11:00.117Z,7.60
2018-11-05T02:21:04.971Z,7.40
2018-11-05T02:31:09.845Z,7.10
2018-11-05T02:41:14.701Z,7.00
2018-11-05T02:51:19.610Z,6.80
2018-11-05T03:01:24.447Z,6.80
2018-11-05T03:11:29.261Z,6.80
2018-11-05T03:21:34.130Z,6.80
2018-11-05T03:31:38.879Z,7.10
2018-11-05T03:41:43.681Z,6.90
2018-11-05T03:51:48.443Z,6.80
2018-11-05T04:01:53.282Z,6.90
2018-11-05T04:11:58.076Z,7.20
2018-11-05T04:22:02.779Z,7.10
2018-11-05T04:32:07.507Z,7.00
2018-11-05T04:42:12.267Z,7.00
2018-11-05T04:52:17.070Z,6.90
2018-11-05T05:02:21.881Z,7.10
2018-11-05T05:12:26.672Z,7.10
2018-11-05T05:22:31.897Z,7.30
2018-11-05T05:32:36.653Z,7.40
2018-11-05T05:42:41.841Z,7.50
2018-11-05T05:52:48.009Z,7.70
2018-11-05T06:02:52.822Z,7.80
2018-11-05T06:12:57.667Z,7.90
2018-11-05T06:23:02.445Z,8.00
2018-11-05T06:33:07.188Z,8.20
2018-11-05T06:43:12.151Z,8.40
2018-11-05T06:53:17.174Z,8.60
2018-11-05T07:03:22.083Z,8.80
2018-11-05T07:13:27.748Z,9.10
2018-11-05T07:23:32.954Z,9.20
2018-11-05T07:33:37.776Z,9.20
2018-11-05T07:43:42.497Z,9.20
2018-11-05T07:53:47.318Z,9.50
2018-11-05T08:03:52.529Z,10.60
2018-11-05T08:13:57.523Z,10.70
2018-11-05T08:24:02.454Z,12.00
2018-11-05T08:34:07.522Z,14.10
2018-11-05T08:43:59.103Z,16.50
2018-11-05T08:46:29.460Z,17.90
2018-11-05T08:48:59.300Z,17.80
2018-11-05T08:51:29.366Z,17.80
2018-11-05T08:53:58.955Z,18.00
2018-11-05T08:56:28.958Z,18.20
2018-11-05T08:58:58.740Z,18.50
2018-11-05T09:01:32.437Z,18.60
2018-11-05T09:04:02.715Z,18.80
2018-11-05T09:06:32.589Z,18.90
2018-11-05T09:09:02.381Z,18.50
2018-11-05T09:11:32.633Z,18.30
2018-11-05T09:14:02.214Z,18.40
2018-11-05T09:16:32.104Z,18.20
2018-11-05T09:19:02.049Z,18.50
2018-11-05T09:21:31.914Z,19.20
2018-11-05T09:24:01.874Z,19.50
2018-11-05T09:26:31.697Z,19.90
2018-11-05T09:29:01.589Z,20.40
2018-11-05T09:31:31.346Z,20.30
2018-11-05T09:34:01.193Z,20.80
2018-11-05T09:36:31.119Z,21.30
2018-11-05T09:39:00.833Z,21.60
2018-11-05T09:41:30.956Z,21.70
2018-11-05T09:44:00.857Z,21.80
2018-11-05T09:46:30.861Z,21.50
2018-11-05T09:49:00.639Z,21.50
2018-11-05T09:51:30.357Z,21.20
2018-11-05T09:54:00.310Z,21.50
2018-11-05T09:56:30.188Z,20.50
2018-11-05T09:58:59.970Z,19.90
2018-11-05T10:01:29.729Z,19.80
2018-11-05T10:03:59.603Z,19.50
2018-11-05T10:06:29.406Z,19.50
2018-11-05T10:08:59.139Z,19.70
2018-11-05T10:11:28.946Z,20.10
2018-11-05T10:13:58.689Z,20.60
2018-11-05T10:16:28.425Z,20.40
2018-11-05T10:18:58.199Z,21.00
2018-11-05T10:21:27.952Z,21.40
2018-11-05T10:23:57.725Z,22.00
2018-11-05T10:26:27.549Z,22.00
2018-11-05T10:28:57.281Z,22.10
2018-11-05T10:31:28.305Z,22.20
2018-11-05T10:33:58.018Z,21.50
2018-11-05T10:36:27.749Z,21.90
2018-11-05T10:38:57.469Z,22.40
2018-11-05T10:41:27.226Z,21.90
2018-11-05T10:43:56.989Z,23.10
2018-11-05T10:46:26.729Z,24.20
2018-11-05T10:48:56.569Z,24.90
2018-11-05T10:51:26.397Z,25.10
2018-11-05T10:53:56.092Z,25.70
2018-11-05T10:56:25.812Z,26.10
2018-11-05T10:58:55.662Z,25.80
2018-11-05T11:01:30.650Z,25.40
2018-11-05T11:04:05.581Z,25.70
2018-11-05T11:06:35.478Z,25.90
2018-11-05T11:09:06.949Z,25.90
2018-11-05T11:11:36.897Z,24.90
2018-11-05T11:14:06.707Z,24.50
2018-11-05T11:16:36.485Z,24.20
2018-11-05T11:19:06.588Z,24.30
2018-11-05T11:21:36.336Z,24.70
2018-11-05T11:24:06.374Z,24.40
2018-11-05T11:26:36.308Z,24.90
2018-11-05T11:29:06.917Z,25.10
2018-11-05T11:31:36.616Z,24.90
2018-11-05T11:34:06.528Z,25.10
2018-11-05T11:36:36.390Z,25.50
2018-11-05T11:39:09.073Z,24.80
2018-11-05T11:41:39.859Z,24.20
2018-11-05T11:44:09.742Z,24.40
2018-11-05T11:46:39.688Z,24.30
2018-11-05T11:49:10.421Z,24.70
2018-11-05T11:51:40.183Z,24.40
2018-11-05T11:54:10.072Z,24.70
2018-11-05T11:56:39.990Z,25.20
2018-11-05T11:59:09.864Z,25.80
2018-11-05T12:01:44.709Z,25.90
2018-11-05T12:04:14.546Z,23.60
2018-11-05T12:06:44.564Z,21.60
2018-11-05T12:09:14.433Z,20.00
2018-11-05T12:11:44.173Z,18.40
2018-11-05T12:14:14.133Z,17.70
2018-11-05T12:16:44.774Z,17.10
2018-11-05T12:19:14.696Z,16.50
2018-11-05T12:21:44.458Z,16.00
2018-11-05T12:24:14.262Z,15.80
2018-11-05T12:26:44.175Z,15.50
2018-11-05T12:29:13.963Z,15.20
2018-11-05T12:31:43.841Z,15.00
2018-11-05T12:34:13.930Z,14.90
2018-11-05T12:36:43.744Z,14.90
2018-11-05T12:39:13.650Z,14.80
2018-11-05T12:41:43.436Z,14.60
2018-11-05T12:44:13.318Z,14.40
2018-11-05T12:46:43.281Z,14.10
2018-11-05T12:49:13.216Z,14.00
2018-11-05T12:51:42.990Z,14.00
2018-11-05T12:54:12.769Z,14.00
2018-11-05T12:56:42.549Z,14.00
2018-11-05T12:59:12.269Z,13.80
2018-11-05T13:01:42.167Z,13.80
2018-11-05T13:04:12.041Z,13.80
2018-11-05T13:06:41.759Z,13.80
2018-11-05T13:09:11.513Z,13.80
2018-11-05T13:11:41.304Z,13.70
2018-11-05T13:14:11.127Z,13.50
2018-11-05T13:16:42.150Z,13.40
2018-11-05T13:19:11.892Z,13.40
2018-11-05T13:21:42.118Z,13.40
2018-11-05T13:24:11.990Z,13.60
2018-11-05T13:26:41.742Z,13.80
2018-11-05T13:29:11.620Z,13.70
2018-11-05T13:31:41.472Z,13.50
2018-11-05T13:34:11.258Z,13.60
2018-11-05T13:36:41.096Z,13.20
2018-11-05T13:39:11.142Z,13.30
2018-11-05T13:41:40.887Z,13.30
2018-11-05T13:44:10.562Z,13.30
2018-11-05T13:46:40.746Z,13.30
2018-11-05T13:49:10.664Z,13.40
2018-11-05T13:51:39.936Z,13.40
2018-11-05T13:54:09.795Z,13.60
2018-11-05T13:56:39.558Z,13.70
2018-11-05T13:59:09.373Z,13.70
2018-11-05T14:01:39.573Z,13.90
2018-11-05T14:04:09.325Z,14.00
2018-11-05T14:06:39.065Z,14.20
2018-11-05T14:09:09.729Z,14.30
2018-11-05T14:11:39.577Z,14.20
2018-11-05T14:14:09.424Z,14.20
2018-11-05T14:16:39.173Z,14.10
2018-11-05T14:19:08.911Z,14.00
2018-11-05T14:21:38.797Z,13.90
2018-11-05T14:24:08.693Z,13.80
2018-11-05T14:26:39.593Z,13.70
2018-11-05T14:29:09.768Z,13.80
2018-11-05T14:31:39.421Z,13.80
2018-11-05T14:34:09.231Z,13.90
2018-11-05T14:36:39.551Z,13.50
2018-11-05T14:39:11.944Z,13.90
2018-11-05T14:41:42.298Z,14.30
2018-11-05T14:44:13.316Z,15.10
2018-11-05T14:46:43.243Z,15.70
2018-11-05T14:49:13.437Z,17.00
2018-11-05T14:51:43.369Z,18.60
2018-11-05T14:54:13.656Z,18.60
2018-11-05T14:56:43.561Z,18.80
2018-11-05T14:59:13.389Z,18.60
2018-11-05T15:01:44.898Z,17.80
2018-11-05T15:04:15.611Z,16.40
2018-11-05T15:06:45.649Z,15.90
2018-11-05T15:09:15.497Z,14.70
2018-11-05T15:11:45.325Z,14.20
2018-11-05T15:14:15.258Z,14.00
2018-11-05T15:16:45.167Z,14.00
2018-11-05T15:19:15.479Z,13.50
2018-11-05T15:21:44.953Z,13.00
2018-11-05T15:24:14.789Z,12.90
2018-11-05T15:26:44.611Z,12.80
2018-11-05T15:29:14.498Z,12.60
2018-11-05T15:31:44.391Z,12.60
2018-11-05T15:34:14.303Z,12.40
2018-11-05T15:36:44.266Z,12.30
2018-11-05T15:39:14.149Z,12.10
2018-11-05T15:41:44.056Z,12.10
2018-11-05T15:44:14.030Z,12.00
2018-11-05T15:46:44.521Z,11.90
2018-11-05T15:49:14.381Z,11.80
2018-11-05T15:51:44.690Z,11.70
2018-11-05T15:54:14.514Z,11.70
2018-11-05T15:56:44.593Z,11.60
2018-11-05T15:59:14.526Z,11.50
2018-11-05T16:01:44.684Z,11.40
2018-11-05T16:04:14.709Z,11.20
2018-11-05T16:06:44.528Z,11.10
2018-11-05T16:09:14.406Z,11.00
2018-11-05T16:11:44.316Z,10.90
2018-11-05T16:14:14.177Z,10.90
2018-11-05T16:16:44.173Z,10.90
2018-11-05T16:19:14.313Z,10.90
2018-11-05T16:21:44.265Z,10.90
2018-11-05T16:24:14.287Z,10.80
2018-11-05T16:26:44.372Z,10.80
2018-11-05T16:29:14.452Z,10.70
2018-11-05T16:31:44.329Z,10.70
2018-11-05T16:34:14.269Z,10.70
2018-11-05T16:36:44.376Z,10.60
2018-11-05T16:39:14.612Z,10.50
2018-11-05T16:41:44.645Z,10.40
2018-11-05T16:44:14.536Z,10.30
2018-11-05T16:46:44.895Z,10.30
2018-11-05T16:49:15.165Z,10.30
2018-11-05T16:51:45.290Z,10.20
2018-11-05T16:54:15.443Z,10.10
2018-11-05T16:56:45.392Z,10.10
2018-11-05T16:59:15.505Z,10.00
2018-11-05T17:01:45.738Z,9.90
2018-11-05T17:04:15.682Z,9.80
2018-11-05T17:06:46.024Z,9.80
2018-11-05T17:09:15.946Z,9.80
2018-11-05T17:11:45.980Z,9.70
2018-11-05T17:14:15.864Z,9.70
2018-11-05T17:16:45.855Z,9.60
2018-11-05T17:19:15.980Z,9.60
2018-11-05T17:21:46.199Z,9.60
2018-11-05T17:24:16.052Z,9.60
2018-11-05T17:26:45.858Z,9.50
2018-11-05T17:29:15.838Z,9.50
2018-11-05T17:31:45.680Z,9.50
2018-11-05T17:34:15.824Z,9.40
2018-11-05T17:36:45.674Z,9.30
2018-11-05T17:39:15.558Z,9.30
2018-11-05T17:41:45.589Z,9.20
2018-11-05T17:44:15.535Z,9.20
2018-11-05T17:46:45.573Z,9.10
2018-11-05T17:49:15.475Z,9.10
2018-11-05T17:51:45.713Z,9.10
2018-11-05T17:54:15.738Z,9.00
2018-11-05T17:56:45.505Z,9.00
2018-11-05T17:59:15.440Z,9.00
2018-11-05T18:01:45.218Z,8.90
2018-11-05T18:04:15.065Z,9.00
2018-11-05T18:06:45.963Z,8.90
2018-11-05T18:09:15.787Z,8.90
2018-11-05T18:11:45.589Z,8.90
2018-11-05T18:14:15.544Z,8.90
2018-11-05T18:16:45.351Z,8.90
2018-11-05T18:19:15.237Z,8.90
2018-11-05T18:21:45.096Z,8.80
2018-11-05T18:24:15.068Z,8.80
2018-11-05T18:26:45.109Z,8.80
2018-11-05T18:29:15.072Z,8.80
2018-11-05T18:31:45.319Z,8.80
2018-11-05T18:34:15.101Z,8.80
2018-11-05T18:36:44.840Z,8.80
2018-11-05T18:39:14.714Z,10.90
2018-11-05T18:41:44.860Z,13.80
2018-11-05T18:44:15.014Z,14.30
2018-11-05T18:46:45.226Z,15.00
2018-11-05T18:49:15.066Z,15.20
2018-11-05T18:51:45.160Z,15.30
2018-11-05T18:54:15.343Z,15.40
2018-11-05T18:56:45.654Z,15.90
2018-11-05T18:59:15.900Z,16.40
2018-11-05T19:01:45.848Z,16.50
2018-11-05T19:04:16.100Z,16.50
2018-11-05T19:06:46.303Z,16.60
2018-11-05T19:09:16.427Z,16.60
2018-11-05T19:11:46.548Z,16.40
2018-11-05T19:14:16.923Z,16.50
2018-11-05T19:16:46.838Z,16.50
2018-11-05T19:19:16.843Z,16.70
2018-11-05T19:21:46.888Z,16.60
2018-11-05T19:24:17.034Z,16.60
2018-11-05T19:26:47.074Z,16.80
2018-11-05T19:29:17.180Z,16.70
2018-11-05T19:31:47.546Z,16.70
2018-11-05T19:34:17.739Z,16.50
2018-11-05T19:36:47.964Z,16.60
2018-11-05T19:39:18.420Z,16.50
2018-11-05T19:41:49.633Z,16.50
2018-11-05T19:44:19.736Z,16.50
2018-11-05T19:46:50.050Z,16.60
2018-11-05T19:49:20.346Z,17.00
2018-11-05T19:51:50.420Z,16.90
2018-11-05T19:54:20.689Z,16.70
2018-11-05T19:56:51.210Z,16.90
2018-11-05T19:59:21.170Z,16.70
2018-11-05T20:01:51.141Z,16.90
2018-11-05T20:04:21.034Z,16.90
2018-11-05T20:06:51.076Z,17.00
2018-11-05T20:09:21.043Z,17.00
2018-11-05T20:11:51.152Z,16.90
2018-11-05T20:14:21.242Z,17.00
2018-11-05T20:16:51.296Z,17.20
2018-11-05T20:19:21.639Z,17.00
2018-11-05T20:21:52.253Z,17.00
2018-11-05T20:24:22.314Z,17.00
2018-11-05T20:26:52.523Z,17.00
2018-11-05T20:29:22.786Z,17.00
2018-11-05T20:31:53.409Z,17.00
2018-11-05T20:34:24.533Z,17.10
2018-11-05T20:36:54.904Z,17.10
2018-11-05T20:39:25.149Z,17.10
2018-11-05T20:41:55.479Z,17.30
2018-11-05T20:44:25.598Z,17.30
2018-11-05T20:46:55.739Z,17.10
2018-11-05T20:49:25.966Z,16.90
2018-11-05T20:51:56.453Z,17.10
2018-11-05T20:54:26.669Z,16.90
2018-11-05T20:56:56.940Z,16.70
2018-11-05T20:59:27.049Z,16.60
2018-11-05T21:01:57.232Z,16.60
2018-11-05T21:04:27.369Z,16.60
2018-11-05T21:06:57.450Z,16.80
2018-11-05T21:09:27.905Z,16.70
2018-11-05T21:11:58.683Z,16.70
2018-11-05T21:14:29.196Z,16.70
2018-11-05T21:16:59.533Z,16.70
2018-11-05T21:19:30.272Z,16.70
2018-11-05T21:22:00.788Z,16.50
2018-11-05T21:24:31.152Z,16.50
2018-11-05T21:27:01.623Z,16.50
2018-11-05T21:29:31.943Z,16.50
2018-11-05T21:32:02.320Z,16.70
2018-11-05T21:34:32.636Z,16.70
2018-11-05T21:37:02.831Z,16.70
2018-11-05T21:39:33.298Z,16.60
2018-11-05T21:42:03.454Z,16.60
2018-11-05T21:44:33.867Z,16.50
2018-11-05T21:47:04.569Z,16.60
2018-11-05T21:49:34.845Z,16.80
2018-11-05T21:52:04.887Z,16.70
2018-11-05T21:54:34.833Z,16.60
2018-11-05T21:57:05.026Z,16.60
2018-11-05T21:59:34.948Z,16.60
2018-11-05T22:02:04.936Z,16.60
2018-11-05T22:04:35.128Z,16.50
2018-11-05T22:07:05.427Z,16.30
2018-11-05T22:09:35.421Z,16.30
2018-11-05T22:12:06.408Z,16.30
2018-11-05T22:14:36.700Z,16.40
2018-11-05T22:17:07.215Z,16.40
2018-11-05T22:19:37.259Z,16.40
2018-11-05T22:22:07.309Z,16.40
2018-11-05T22:24:37.208Z,16.70
2018-11-05T22:27:06.956Z,17.00
2018-11-05T22:29:36.862Z,16.90
2018-11-05T22:32:06.849Z,16.90
2018-11-05T22:34:36.785Z,16.70
2018-11-05T22:37:06.712Z,16.60
2018-11-05T22:39:36.917Z,16.60
2018-11-05T22:42:06.889Z,16.50
2018-11-05T22:44:36.756Z,16.40
2018-11-05T22:47:06.586Z,16.70
2018-11-05T22:49:36.433Z,16.60
2018-11-05T22:52:07.355Z,16.40
2018-11-05T22:54:37.154Z,16.40
2018-11-05T22:57:07.009Z,16.40
2018-11-05T22:59:36.918Z,16.40
2018-11-05T23:02:06.797Z,16.30
2018-11-05T23:04:36.543Z,16.50
2018-11-05T23:07:06.347Z,16.40
2018-11-05T23:09:36.117Z,16.50
2018-11-05T23:12:05.934Z,16.20
2018-11-05T23:14:35.690Z,16.20
2018-11-05T23:17:05.716Z,16.20
2018-11-05T23:19:35.446Z,16.30
2018-11-05T23:22:05.188Z,16.60
2018-11-05T23:24:34.969Z,16.60
2018-11-05T23:27:04.697Z,16.70
2018-11-05T23:29:34.505Z,16.60
2018-11-05T23:32:04.193Z,16.80
2018-11-05T23:34:33.965Z,16.70
2018-11-05T23:37:03.826Z,16.70
2018-11-05T23:39:33.526Z,16.60
2018-11-05T23:42:03.284Z,16.50
2018-11-05T23:44:32.970Z,16.40
2018-11-05T23:47:02.758Z,16.30
2018-11-05T23:49:32.506Z,16.50
2018-11-05T23:52:02.240Z,16.50
2018-11-05T23:54:31.966Z,16.30
2018-11-05T23:57:01.764Z,16.30
2018-11-05T23:59:31.555Z,16.20
